createdAt,value
2019-03-24T00:01:07.808Z,32.37
2019-03-24T00:03:35.537Z,32.33
2019-03-24T00:06:01.818Z,23.70
2019-03-24T00:08:28.101Z,35.70
2019-03-24T00:10:54.462Z,31.60
2019-03-24T00:13:20.820Z,28.73
2019-03-24T00:15:47.187Z,28.47
2019-03-24T00:18:13.469Z,32.87
2019-03-24T00:20:39.761Z,38.17
2019-03-24T00:23:06.040Z,35.87
2019-03-24T00:25:32.524Z,32.90
2019-03-24T00:27:58.905Z,27.93
2019-03-24T00:30:25.313Z,28.50
2019-03-24T00:32:51.626Z,27.80
2019-03-24T00:35:18.943Z,26.13
2019-03-24T00:37:45.202Z,30.27
2019-03-24T00:40:12.407Z,27.30
2019-03-24T00:42:38.663Z,28.30
2019-03-24T00:45:10.762Z,29.20
2019-03-24T00:47:37.160Z,31.43
2019-03-24T00:50:06.723Z,26.80
2019-03-24T00:52:33.116Z,28.47
2019-03-24T00:55:00.009Z,30.70
2019-03-24T00:57:26.266Z,26.83
2019-03-24T00:59:52.608Z,31.00
2019-03-24T01:02:18.997Z,38.97
2019-03-24T01:04:45.302Z,28.67
2019-03-24T01:07:11.752Z,27.93
2019-03-24T01:09:38.019Z,33.67
2019-03-24T01:12:04.405Z,26.07
2019-03-24T01:14:30.654Z,27.33
2019-03-24T01:16:57.094Z,29.27
2019-03-24T01:19:23.368Z,30.30
2019-03-24T01:21:49.644Z,30.27
2019-03-24T01:24:16.104Z,26.40
2019-03-24T01:26:42.712Z,27.97
2019-03-24T01:29:08.996Z,28.80
2019-03-24T01:31:35.262Z,25.10
2019-03-24T01:34:01.529Z,33.73
2019-03-24T01:36:27.832Z,26.07
2019-03-24T01:38:54.122Z,28.43
2019-03-24T01:41:20.793Z,34.60
2019-03-24T01:43:47.288Z,27.30
2019-03-24T01:46:13.746Z,32.87
2019-03-24T01:48:40.204Z,35.23
2019-03-24T01:51:06.466Z,29.73
2019-03-24T01:53:32.734Z,29.80
2019-03-24T01:55:59.024Z,32.23
2019-03-24T01:58:25.343Z,29.00
2019-03-24T02:00:51.693Z,31.10
2019-03-24T02:03:17.951Z,32.57
2019-03-24T02:05:44.216Z,34.40
2019-03-24T02:08:10.879Z,30.97
2019-03-24T02:10:37.198Z,29.17
2019-03-24T02:13:03.686Z,26.50
2019-03-24T02:15:30.013Z,38.00
2019-03-24T02:17:56.303Z,28.60
2019-03-24T02:20:22.589Z,29.70
2019-03-24T02:22:48.883Z,33.50
2019-03-24T02:25:15.176Z,34.90
2019-03-24T02:27:41.576Z,31.70
2019-03-24T02:30:08.761Z,24.80
2019-03-24T02:32:35.191Z,26.93
2019-03-24T02:35:01.985Z,25.23
2019-03-24T02:37:28.250Z,33.00
2019-03-24T02:39:54.552Z,34.43
2019-03-24T02:42:20.828Z,35.23
2019-03-24T02:44:47.121Z,28.70
2019-03-24T02:47:13.420Z,32.03
2019-03-24T02:49:39.759Z,27.70
2019-03-24T02:52:06.053Z,33.60
2019-03-24T02:54:32.350Z,31.40
2019-03-24T02:56:58.681Z,32.63
2019-03-24T02:59:24.967Z,31.73
2019-03-24T03:01:51.324Z,27.80
2019-03-24T03:04:17.743Z,28.53
2019-03-24T03:06:44.074Z,31.80
2019-03-24T03:09:10.333Z,34.73
2019-03-24T03:11:36.614Z,34.53
2019-03-24T03:14:03.295Z,29.73
2019-03-24T03:16:38.280Z,27.83
2019-03-24T03:18:57.944Z,28.03
2019-03-24T03:21:24.218Z,29.23
2019-03-24T03:23:50.633Z,28.13
2019-03-24T03:26:17.070Z,24.27
2019-03-24T03:28:44.509Z,30.60
2019-03-24T03:31:10.780Z,24.40
2019-03-24T03:33:37.085Z,30.70
2019-03-24T03:36:03.713Z,31.33
2019-03-24T03:38:30.174Z,31.27
2019-03-24T03:40:56.582Z,34.90
2019-03-24T03:43:23.111Z,39.83
2019-03-24T03:45:49.378Z,35.13
2019-03-24T03:48:15.831Z,26.00
2019-03-24T03:50:42.243Z,24.13
2019-03-24T03:53:08.536Z,31.23
2019-03-24T03:55:34.807Z,27.67
2019-03-24T03:58:01.313Z,31.20
2019-03-24T04:00:35.542Z,27.23
2019-03-24T04:03:03.329Z,35.57
2019-03-24T04:05:29.569Z,33.23
2019-03-24T04:07:56.260Z,30.20
2019-03-24T04:10:22.523Z,33.53
2019-03-24T04:12:48.948Z,26.17
2019-03-24T04:15:15.365Z,31.87
2019-03-24T04:17:41.769Z,32.63
2019-03-24T04:20:08.354Z,29.27
2019-03-24T04:22:36.559Z,31.63
2019-03-24T04:25:05.265Z,30.77
2019-03-24T04:27:31.535Z,32.73
2019-03-24T04:29:57.804Z,34.50
2019-03-24T04:32:24.267Z,29.30
2019-03-24T04:34:50.552Z,34.53
2019-03-24T04:37:16.923Z,34.37
2019-03-24T04:39:43.200Z,33.50
2019-03-24T04:42:09.462Z,28.60
2019-03-24T04:44:35.717Z,28.67
2019-03-24T04:47:02.087Z,28.90
2019-03-24T04:49:28.405Z,32.73
2019-03-24T04:51:54.887Z,27.63
2019-03-24T04:54:21.166Z,32.67
2019-03-24T04:56:47.547Z,31.30
2019-03-24T04:59:33.694Z,27.90
2019-03-24T05:02:00.288Z,34.77
2019-03-24T05:04:26.550Z,31.00
2019-03-24T05:06:53.190Z,25.77
2019-03-24T05:09:20.259Z,32.10
2019-03-24T05:11:46.534Z,27.80
2019-03-24T05:14:12.791Z,32.70
2019-03-24T05:16:39.079Z,30.50
2019-03-24T05:19:05.430Z,35.67
2019-03-24T05:21:31.724Z,30.60
2019-03-24T05:23:58.148Z,27.73
2019-03-24T05:26:24.456Z,30.23
2019-03-24T05:28:50.733Z,28.47
2019-03-24T05:31:17.151Z,27.70
2019-03-24T05:33:43.423Z,31.83
2019-03-24T05:36:09.803Z,23.67
2019-03-24T05:38:36.071Z,24.37
2019-03-24T05:41:02.729Z,22.87
2019-03-24T05:43:29.009Z,24.93
2019-03-24T05:45:55.282Z,23.80
2019-03-24T05:48:21.670Z,29.90
2019-03-24T05:50:47.952Z,31.57
2019-03-24T05:53:14.239Z,25.00
2019-03-24T05:55:40.494Z,27.27
2019-03-24T05:58:06.915Z,32.47
2019-03-24T06:00:33.276Z,24.80
2019-03-24T06:02:59.551Z,24.37
2019-03-24T06:05:31.386Z,22.20
2019-03-24T06:07:57.754Z,26.43
2019-03-24T06:10:24.016Z,23.90
2019-03-24T06:12:50.387Z,26.17
2019-03-24T06:15:16.782Z,22.97
2019-03-24T06:17:47.706Z,24.20
2019-03-24T06:20:11.554Z,22.53
2019-03-24T06:22:37.820Z,27.50
2019-03-24T06:25:05.546Z,23.53
2019-03-24T06:27:31.875Z,18.80
2019-03-24T06:29:58.136Z,23.73
2019-03-24T06:32:24.469Z,23.80
2019-03-24T06:34:50.870Z,23.60
2019-03-24T06:37:17.259Z,20.07
2019-03-24T06:39:43.529Z,23.80
2019-03-24T06:42:09.786Z,28.97
2019-03-24T06:44:36.162Z,21.23
2019-03-24T06:47:02.749Z,21.87
2019-03-24T06:49:29.047Z,25.03
2019-03-24T06:51:55.446Z,25.03
2019-03-24T06:54:21.711Z,20.80
2019-03-24T06:56:47.986Z,23.33
2019-03-24T06:59:14.258Z,22.23
2019-03-24T07:01:40.531Z,23.53
2019-03-24T07:04:06.887Z,26.80
2019-03-24T07:06:34.789Z,19.77
2019-03-24T07:09:01.163Z,19.20
2019-03-24T07:11:27.450Z,21.13
2019-03-24T07:13:53.702Z,27.27
2019-03-24T07:16:23.396Z,23.70
2019-03-24T07:18:49.844Z,21.97
2019-03-24T07:21:16.217Z,23.53
2019-03-24T07:23:42.646Z,28.03
2019-03-24T07:26:09.106Z,25.07
2019-03-24T07:28:35.404Z,31.40
2019-03-24T07:31:01.938Z,29.07
2019-03-24T07:33:28.600Z,27.23
2019-03-24T07:35:55.276Z,33.17
2019-03-24T07:38:21.923Z,27.20
2019-03-24T07:40:48.723Z,28.43
2019-03-24T07:43:15.261Z,35.83
2019-03-24T07:45:41.634Z,34.80
2019-03-24T07:48:18.443Z,30.97
2019-03-24T07:50:36.728Z,33.07
2019-03-24T07:53:03.005Z,30.47
2019-03-24T07:55:29.390Z,28.53
2019-03-24T07:57:55.716Z,32.37
2019-03-24T08:00:35.182Z,38.83
2019-03-24T08:03:01.444Z,34.73
2019-03-24T08:05:29.483Z,35.07
2019-03-24T08:07:55.750Z,38.00
2019-03-24T08:10:22.208Z,33.10
2019-03-24T08:12:48.566Z,33.10
2019-03-24T08:15:14.991Z,31.40
2019-03-24T08:17:41.259Z,42.13
2019-03-24T08:20:08.045Z,42.40
2019-03-24T08:22:34.342Z,44.07
2019-03-24T08:25:00.838Z,38.27
2019-03-24T08:27:27.283Z,35.83
2019-03-24T08:29:53.675Z,38.80
2019-03-24T08:32:20.090Z,46.57
2019-03-24T08:34:48.403Z,37.63
2019-03-24T08:37:14.766Z,38.37
2019-03-24T08:39:41.021Z,36.93
2019-03-24T08:42:07.412Z,37.80
2019-03-24T08:44:33.749Z,36.53
2019-03-24T08:47:00.022Z,36.10
2019-03-24T08:49:26.316Z,42.77
2019-03-24T08:51:52.581Z,40.20
2019-03-24T08:54:18.868Z,41.30
2019-03-24T08:56:45.150Z,39.10
2019-03-24T08:59:11.408Z,43.57
2019-03-24T09:01:37.666Z,45.17
2019-03-24T09:04:04.184Z,42.90
2019-03-24T09:06:30.548Z,36.23
2019-03-24T09:08:56.823Z,43.43
2019-03-24T09:11:30.797Z,46.20
2019-03-24T09:13:51.327Z,46.33
2019-03-24T09:16:17.685Z,47.03
2019-03-24T09:18:52.668Z,43.27
2019-03-24T09:21:12.124Z,49.43
2019-03-24T09:23:38.493Z,47.20
2019-03-24T09:26:04.965Z,47.53
2019-03-24T09:28:31.217Z,46.43
2019-03-24T09:30:57.479Z,44.63
2019-03-24T09:33:23.735Z,47.13
2019-03-24T09:35:49.981Z,46.30
2019-03-24T09:38:16.392Z,49.83
2019-03-24T09:40:42.801Z,47.50
2019-03-24T09:43:09.178Z,45.67
2019-03-24T09:45:35.609Z,47.37
2019-03-24T09:48:02.261Z,49.10
2019-03-24T09:50:28.810Z,42.77
2019-03-24T09:52:55.777Z,55.53
2019-03-24T09:55:22.069Z,45.93
2019-03-24T09:57:48.941Z,46.67
2019-03-24T10:00:15.548Z,63.97
2019-03-24T10:02:41.815Z,53.33
2019-03-24T10:05:09.723Z,50.67
2019-03-24T10:07:36.527Z,52.33
2019-03-24T10:10:07.712Z,56.67
2019-03-24T10:12:33.973Z,59.93
2019-03-24T10:15:00.389Z,51.50
2019-03-24T10:17:26.650Z,57.70
2019-03-24T10:19:53.127Z,47.30
2019-03-24T10:22:19.375Z,53.57
2019-03-24T10:24:45.744Z,49.37
2019-03-24T10:27:12.221Z,49.90
2019-03-24T10:29:38.661Z,51.60
2019-03-24T10:32:04.935Z,55.73
2019-03-24T10:34:31.314Z,55.00
2019-03-24T10:36:57.595Z,52.33
2019-03-24T10:39:23.847Z,55.03
2019-03-24T10:41:50.231Z,50.33
2019-03-24T10:44:18.399Z,58.57
2019-03-24T10:46:44.661Z,53.33
2019-03-24T10:49:10.970Z,53.40
2019-03-24T10:51:37.260Z,52.40
2019-03-24T10:54:03.706Z,58.43
2019-03-24T10:56:29.973Z,68.63
2019-03-24T10:58:56.240Z,66.93
2019-03-24T11:01:22.493Z,61.50
2019-03-24T11:03:48.768Z,64.80
2019-03-24T11:06:15.143Z,65.17
2019-03-24T11:08:41.597Z,70.00
2019-03-24T11:11:07.896Z,67.83
2019-03-24T11:13:34.142Z,67.57
2019-03-24T11:16:00.547Z,55.10
2019-03-24T11:18:26.902Z,64.10
2019-03-24T11:20:55.077Z,62.30
2019-03-24T11:23:21.505Z,59.93
2019-03-24T11:25:47.841Z,61.27
2019-03-24T11:28:14.161Z,53.90
2019-03-24T11:30:40.472Z,62.80
2019-03-24T11:33:06.865Z,58.10
2019-03-24T11:35:33.374Z,55.10
2019-03-24T11:37:59.711Z,55.17
2019-03-24T11:40:26.141Z,67.30
2019-03-24T11:42:52.512Z,59.37
2019-03-24T11:45:18.992Z,62.60
2019-03-24T11:47:45.266Z,66.23
2019-03-24T11:50:11.843Z,65.30
2019-03-24T11:52:38.390Z,63.73
2019-03-24T11:55:10.253Z,62.37
2019-03-24T11:57:36.822Z,66.10
2019-03-24T12:00:15.420Z,68.67
2019-03-24T12:02:41.821Z,69.97
2019-03-24T12:05:08.467Z,61.57
2019-03-24T12:07:34.717Z,59.80
2019-03-24T12:10:03.935Z,65.70
2019-03-24T12:12:30.312Z,57.83
2019-03-24T12:14:56.622Z,64.60
2019-03-24T12:17:23.020Z,61.40
2019-03-24T12:19:56.833Z,62.53
2019-03-24T12:22:17.579Z,65.97
2019-03-24T12:24:43.947Z,64.47
2019-03-24T12:27:10.536Z,56.33
2019-03-24T12:29:36.971Z,58.50
2019-03-24T12:32:03.513Z,61.00
2019-03-24T12:34:31.921Z,67.27
2019-03-24T12:36:58.168Z,61.97
2019-03-24T12:39:24.454Z,61.30
2019-03-24T12:41:50.917Z,64.77
2019-03-24T12:44:17.336Z,56.33
2019-03-24T12:46:43.588Z,53.20
2019-03-24T12:49:09.890Z,61.77
2019-03-24T12:51:36.150Z,67.87
2019-03-24T12:54:02.734Z,65.33
2019-03-24T12:56:29.166Z,63.77
2019-03-24T12:58:55.414Z,69.77
2019-03-24T13:01:21.684Z,56.23
2019-03-24T13:03:48.032Z,60.70
2019-03-24T13:06:14.418Z,58.00
2019-03-24T13:08:41.049Z,52.00
2019-03-24T13:11:07.559Z,51.00
2019-03-24T13:13:33.829Z,54.70
2019-03-24T13:16:00.375Z,54.40
2019-03-24T13:18:26.768Z,68.43
2019-03-24T13:20:53.071Z,68.20
2019-03-24T13:23:19.514Z,62.67
2019-03-24T13:25:45.774Z,69.20
2019-03-24T13:28:12.051Z,64.80
2019-03-24T13:30:38.317Z,58.63
2019-03-24T13:33:04.724Z,52.27
2019-03-24T13:35:31.085Z,54.87
2019-03-24T13:37:57.492Z,50.03
2019-03-24T13:40:23.822Z,63.33
2019-03-24T13:42:50.089Z,53.70
2019-03-24T13:45:16.462Z,64.87
2019-03-24T13:47:42.841Z,49.97
2019-03-24T13:50:09.922Z,55.13
2019-03-24T13:52:36.482Z,52.87
2019-03-24T13:55:05.345Z,53.93
2019-03-24T13:57:31.897Z,52.47
2019-03-24T13:59:58.301Z,55.60
2019-03-24T14:02:24.755Z,54.03
2019-03-24T14:04:51.853Z,56.57
2019-03-24T14:07:18.398Z,55.93
2019-03-24T14:09:44.656Z,53.10
2019-03-24T14:12:11.136Z,53.63
2019-03-24T14:14:37.559Z,57.23
2019-03-24T14:17:03.912Z,45.90
2019-03-24T14:19:30.173Z,52.17
2019-03-24T14:21:56.446Z,53.47
2019-03-24T14:24:22.686Z,53.73
2019-03-24T14:26:49.306Z,51.87
2019-03-24T14:29:15.554Z,47.40
2019-03-24T14:31:42.363Z,45.07
2019-03-24T14:34:08.737Z,47.87
2019-03-24T14:36:35.036Z,46.10
2019-03-24T14:39:01.305Z,48.13
2019-03-24T14:41:27.561Z,55.13
2019-03-24T14:43:53.839Z,61.20
2019-03-24T14:46:20.371Z,52.23
2019-03-24T14:48:46.869Z,51.23
2019-03-24T14:51:13.142Z,51.93
2019-03-24T14:53:39.414Z,50.17
2019-03-24T14:56:05.826Z,49.17
2019-03-24T14:58:32.293Z,53.70
2019-03-24T15:00:58.657Z,43.77
2019-03-24T15:03:25.050Z,46.33
2019-03-24T15:05:51.500Z,48.83
2019-03-24T15:08:17.784Z,54.57
2019-03-24T15:10:44.255Z,49.87
2019-03-24T15:13:10.726Z,61.30
2019-03-24T15:15:37.130Z,49.60
2019-03-24T15:18:03.781Z,53.77
2019-03-24T15:20:30.147Z,52.30
2019-03-24T15:22:56.543Z,49.67
2019-03-24T15:25:22.820Z,44.30
2019-03-24T15:27:49.086Z,49.37
2019-03-24T15:30:15.855Z,45.37
2019-03-24T15:32:43.467Z,48.07
2019-03-24T15:35:10.050Z,55.13
2019-03-24T15:37:36.560Z,40.83
2019-03-24T15:40:05.702Z,51.30
2019-03-24T15:42:31.948Z,47.03
2019-03-24T15:44:58.308Z,40.30
2019-03-24T15:47:24.717Z,46.33
2019-03-24T15:49:51.183Z,44.87
2019-03-24T15:52:17.547Z,49.53
2019-03-24T15:54:45.880Z,40.13
2019-03-24T15:57:12.511Z,49.63
2019-03-24T15:59:40.586Z,51.37
2019-03-24T16:02:06.835Z,52.00
2019-03-24T16:04:33.100Z,51.43
2019-03-24T16:06:59.378Z,39.13
2019-03-24T16:09:25.871Z,41.70
2019-03-24T16:11:52.144Z,45.13
2019-03-24T16:14:18.469Z,45.73
2019-03-24T16:16:44.929Z,42.23
2019-03-24T16:19:31.098Z,45.87
2019-03-24T16:21:57.348Z,39.80
2019-03-24T16:24:23.598Z,50.30
2019-03-24T16:26:49.874Z,44.07
2019-03-24T16:29:16.129Z,50.90
2019-03-24T16:31:42.424Z,46.73
2019-03-24T16:34:08.755Z,42.30
2019-03-24T16:36:37.061Z,44.80
2019-03-24T16:39:07.146Z,47.10
2019-03-24T16:41:33.429Z,40.27
2019-03-24T16:43:59.704Z,44.70
2019-03-24T16:46:26.231Z,44.90
2019-03-24T16:48:52.541Z,38.57
2019-03-24T16:51:18.822Z,36.00
2019-03-24T16:53:45.081Z,42.17
2019-03-24T16:56:11.379Z,39.83
2019-03-24T16:58:37.774Z,40.83
2019-03-24T17:01:04.248Z,43.17
2019-03-24T17:03:30.536Z,39.57
2019-03-24T17:05:57.101Z,42.50
2019-03-24T17:08:23.382Z,55.83
2019-03-24T17:10:49.750Z,43.60
2019-03-24T17:13:16.112Z,48.10
2019-03-24T17:15:42.578Z,46.23
2019-03-24T17:18:09.035Z,54.27
2019-03-24T17:20:35.399Z,51.10
2019-03-24T17:23:01.922Z,46.20
2019-03-24T17:25:28.197Z,54.20
2019-03-24T17:27:54.472Z,54.03
2019-03-24T17:30:20.846Z,47.17
2019-03-24T17:32:47.202Z,48.87
2019-03-24T17:35:13.628Z,54.03
2019-03-24T17:37:40.039Z,42.40
2019-03-24T17:40:09.230Z,47.13
2019-03-24T17:42:37.543Z,46.77
2019-03-24T17:45:09.832Z,49.23
2019-03-24T17:47:36.320Z,49.67
2019-03-24T17:50:05.206Z,56.60
2019-03-24T17:52:31.456Z,49.97
2019-03-24T17:54:57.728Z,47.30
2019-03-24T17:57:24.149Z,60.73
2019-03-24T17:59:50.523Z,54.20
2019-03-24T18:02:16.879Z,57.33
2019-03-24T18:04:43.253Z,55.77
2019-03-24T18:07:09.543Z,63.27
2019-03-24T18:09:35.832Z,61.57
2019-03-24T18:12:02.117Z,58.97
2019-03-24T18:14:28.510Z,55.30
2019-03-24T18:16:54.812Z,67.43
2019-03-24T18:19:21.259Z,65.73
2019-03-24T18:21:47.994Z,66.63
2019-03-24T18:24:14.359Z,59.73
2019-03-24T18:26:40.848Z,61.57
2019-03-24T18:29:07.411Z,67.40
2019-03-24T18:31:33.729Z,67.17
2019-03-24T18:34:00.009Z,62.77
2019-03-24T18:36:26.930Z,66.27
2019-03-24T18:38:53.708Z,69.10
2019-03-24T18:41:20.681Z,79.30
2019-03-24T18:43:47.597Z,68.20
2019-03-24T18:46:14.510Z,60.27
2019-03-24T18:48:41.312Z,64.70
2019-03-24T18:51:08.023Z,67.17
2019-03-24T18:53:35.085Z,72.93
2019-03-24T18:56:02.237Z,73.47
2019-03-24T18:58:31.947Z,72.30
2019-03-24T19:00:59.377Z,72.93
2019-03-24T19:03:27.211Z,73.20
2019-03-24T19:05:55.006Z,77.97
2019-03-24T19:08:22.615Z,70.93
2019-03-24T19:10:50.206Z,74.47
2019-03-24T19:13:17.775Z,69.50
2019-03-24T19:15:45.732Z,70.23
2019-03-24T19:18:13.597Z,57.57
2019-03-24T19:20:40.744Z,58.67
2019-03-24T19:23:08.651Z,67.67
2019-03-24T19:25:36.581Z,61.53
2019-03-24T19:28:05.865Z,63.83
2019-03-24T19:30:37.175Z,57.40
2019-03-24T19:33:05.594Z,69.03
2019-03-24T19:35:33.747Z,70.17
2019-03-24T19:38:02.065Z,57.10
2019-03-24T19:40:33.750Z,61.80
2019-03-24T19:43:02.840Z,65.27
2019-03-24T19:45:30.759Z,55.57
2019-03-24T19:48:00.959Z,59.43
2019-03-24T19:50:28.852Z,70.30
2019-03-24T19:52:58.447Z,61.90
2019-03-24T19:55:26.580Z,68.27
2019-03-24T19:57:54.765Z,62.03
2019-03-24T20:00:22.754Z,63.07
2019-03-24T20:02:50.652Z,66.70
2019-03-24T20:05:18.546Z,66.90
2019-03-24T20:07:48.099Z,66.27
2019-03-24T20:10:17.993Z,61.53
2019-03-24T20:12:45.943Z,61.40
2019-03-24T20:15:14.731Z,66.50
2019-03-24T20:17:42.614Z,66.57
2019-03-24T20:20:11.634Z,75.40
2019-03-24T20:22:39.667Z,71.20
2019-03-24T20:25:07.635Z,73.23
2019-03-24T20:27:35.644Z,61.90
2019-03-24T20:30:08.084Z,70.10
2019-03-24T20:32:36.370Z,78.07
2019-03-24T20:35:07.061Z,73.50
2019-03-24T20:37:35.461Z,69.17
2019-03-24T20:40:06.819Z,70.50
2019-03-24T20:42:34.864Z,74.43
2019-03-24T20:45:04.141Z,87.37
2019-03-24T20:47:32.140Z,78.10
2019-03-24T20:50:03.806Z,72.53
2019-03-24T20:52:31.790Z,72.77
2019-03-24T20:54:59.775Z,84.83
2019-03-24T20:57:27.638Z,78.00
2019-03-24T20:59:55.584Z,81.50
2019-03-24T21:02:23.565Z,74.17
2019-03-24T21:04:51.464Z,79.60
2019-03-24T21:07:18.910Z,75.53
2019-03-24T21:09:46.697Z,75.93
2019-03-24T21:12:13.810Z,75.73
2019-03-24T21:14:40.229Z,81.27
2019-03-24T21:17:07.233Z,77.77
2019-03-24T21:19:34.243Z,77.80
2019-03-24T21:22:01.586Z,70.13
2019-03-24T21:24:27.878Z,75.70
2019-03-24T21:26:54.159Z,80.33
2019-03-24T21:29:22.548Z,82.73
2019-03-24T21:31:48.912Z,77.40
2019-03-24T21:34:15.398Z,81.83
2019-03-24T21:36:41.644Z,71.40
2019-03-24T21:39:07.905Z,65.17
2019-03-24T21:41:34.322Z,79.53
2019-03-24T21:44:00.772Z,68.07
2019-03-24T21:46:27.107Z,72.60
2019-03-24T21:48:53.393Z,78.20
2019-03-24T21:51:19.684Z,69.43
2019-03-24T21:53:45.965Z,76.00
2019-03-24T21:56:14.423Z,74.83
2019-03-24T21:58:40.802Z,76.10
2019-03-24T22:01:07.191Z,77.57
2019-03-24T22:03:33.548Z,80.23
2019-03-24T22:06:00.044Z,73.73
2019-03-24T22:08:26.298Z,79.40
2019-03-24T22:10:52.656Z,73.13
2019-03-24T22:13:18.949Z,76.67
2019-03-24T22:15:45.295Z,82.10
2019-03-24T22:18:11.531Z,78.67
2019-03-24T22:20:48.571Z,77.20
2019-03-24T22:23:06.153Z,94.63
2019-03-24T22:25:32.502Z,85.37
2019-03-24T22:27:58.938Z,75.70
2019-03-24T22:30:25.196Z,78.80
2019-03-24T22:32:51.518Z,67.83
2019-03-24T22:35:17.869Z,79.10
2019-03-24T22:37:44.212Z,77.23
2019-03-24T22:40:11.084Z,77.63
2019-03-24T22:42:37.339Z,72.07
2019-03-24T22:45:04.826Z,81.37
2019-03-24T22:47:31.212Z,74.00
2019-03-24T22:49:57.524Z,80.57
2019-03-24T22:52:23.794Z,75.80
2019-03-24T22:54:50.087Z,92.00
2019-03-24T22:57:16.365Z,75.50
2019-03-24T22:59:42.641Z,74.10
2019-03-24T23:02:09.131Z,88.67
2019-03-24T23:04:35.378Z,93.43
2019-03-24T23:07:01.770Z,76.47
2019-03-24T23:09:28.151Z,88.03
2019-03-24T23:11:54.427Z,82.63
2019-03-24T23:14:22.034Z,78.77
2019-03-24T23:16:48.303Z,74.43
2019-03-24T23:19:14.558Z,72.33
2019-03-24T23:21:40.830Z,72.83
2019-03-24T23:24:15.466Z,78.07
2019-03-24T23:26:35.606Z,77.67
2019-03-24T23:29:02.063Z,93.20
2019-03-24T23:31:28.440Z,85.90
2019-03-24T23:33:54.973Z,78.90
2019-03-24T23:36:21.367Z,76.50
2019-03-24T23:38:47.619Z,80.07
2019-03-24T23:41:14.028Z,77.73
2019-03-24T23:43:40.275Z,83.50
2019-03-24T23:46:06.733Z,87.83
2019-03-24T23:48:33.093Z,83.73
2019-03-24T23:50:59.557Z,86.60
2019-03-24T23:53:26.065Z,83.10
2019-03-24T23:55:52.349Z,73.33
2019-03-24T23:58:18.753Z,85.93
